Terminal Aerodrome Forecast
Issued by NWS North Platte, NE

Home | Current Version | Previous Version | Text Only | Print | Product List | Glossary Off
Versions: 1 2 3 4 5 6 7 8 9 10 11 12 13

000
FTUS43 KLBF 142322
TAFVTN
TAF
KVTN 142322Z 1500/1524 32006KT P6SM BKN110 BKN200
     FM150200 34016G24KT P6SM SCT110 SCT200
     FM150600 32013G20KT P6SM SCT110 SCT200
     FM150900 30009KT P6SM SKC=

USA.gov is the U.S. government's official web portal to all federal, state and local government web resources and services.